Time;durP1;ratioP1;P1;durP2;ratioP2;P2;SDS_P1;SDS_P2;PMS_P1;PMS_P2;Temp;Humidity;BMP_temperature;BMP_pressure;BME280_temperature;BME280_humidity;BME280_pressure;Samples;Min_cycle;Max_cycle;Signal;HPM_P1;HPM_P2
2023/05/31 00:01:16;;;;;;;6.20;3.15;;;10.10;99.90;;;;;;4956410;28;94273;-32
2023/05/31 00:03:43;;;;;;;4.97;4.13;;;10.00;99.90;;;;;;4957056;28;94151;-32
2023/05/31 00:06:09;;;;;;;5.22;3.05;;;10.00;99.90;;;;;;4956277;28;92164;-33
2023/05/31 00:08:35;;;;;;;5.28;3.83;;;9.90;99.90;;;;;;4956653;28;94156;-36
2023/05/31 00:11:01;;;;;;;8.80;4.45;;;9.80;99.90;;;;;;4955704;28;95632;-31
2023/05/31 00:13:26;;;;;;;4.93;4.00;;;9.80;99.90;;;;;;4955298;28;95093;-32
2023/05/31 00:15:52;;;;;;;6.25;4.22;;;9.70;99.90;;;;;;4956785;28;93206;-33
2023/05/31 00:18:18;;;;;;;5.65;3.65;;;9.80;99.90;;;;;;4955706;28;94494;-32
2023/05/31 00:20:43;;;;;;;6.03;3.08;;;9.80;99.90;;;;;;4956347;28;94893;-34
2023/05/31 00:23:10;;;;;;;8.10;4.65;;;9.80;99.90;;;;;;4955540;28;94712;-32
2023/05/31 00:25:35;;;;;;;5.75;3.35;;;9.70;99.90;;;;;;4955784;28;94344;-34
2023/05/31 00:28:01;;;;;;;12.70;4.03;;;9.70;99.90;;;;;;4956709;28;91744;-35
2023/05/31 00:30:26;;;;;;;8.85;4.85;;;9.70;99.90;;;;;;4954808;28;94782;-32
2023/05/31 00:32:52;;;;;;;5.88;3.25;;;9.70;99.90;;;;;;4956286;28;94463;-33
2023/05/31 00:35:17;;;;;;;10.85;4.80;;;9.70;99.90;;;;;;4955134;28;95653;-35
2023/05/31 00:37:43;;;;;;;6.07;4.25;;;9.70;99.90;;;;;;4955801;28;93002;-35
2023/05/31 00:40:09;;;;;;;6.35;3.55;;;9.80;99.90;;;;;;4955949;28;93595;-32
2023/05/31 00:42:35;;;;;;;10.05;5.60;;;9.80;99.90;;;;;;4955205;28;94372;-31
2023/05/31 00:45:01;;;;;;;5.15;4.22;;;9.90;99.90;;;;;;4956814;28;92844;-33
2023/05/31 00:47:27;;;;;;;9.23;4.55;;;10.00;99.90;;;;;;4955117;28;94214;-32
2023/05/31 00:49:54;;;;;;;5.85;3.50;;;10.00;99.90;;;;;;4956307;28;94949;-31
2023/05/31 00:52:20;;;;;;;6.68;3.90;;;10.00;99.90;;;;;;4956439;28;94625;-34
2023/05/31 00:54:45;;;;;;;7.78;4.38;;;9.90;99.90;;;;;;4955834;28;92697;-34
2023/05/31 00:57:11;;;;;;;9.90;4.68;;;10.00;99.90;;;;;;4938378;28;93180;-36
2023/05/31 00:59:37;;;;;;;12.95;4.20;;;10.00;99.90;;;;;;4955546;28;95341;-32
2023/05/31 01:02:03;;;;;;;5.95;4.13;;;10.00;99.90;;;;;;4955562;28;95387;-31
2023/05/31 01:04:32;;;;;;;9.55;4.78;;;10.00;99.90;;;;;;4959781;28;94197;-34
2023/05/31 01:07:00;;;;;;;10.30;4.93;;;10.10;99.90;;;;;;4942258;28;94605;-30
2023/05/31 01:09:28;;;;;;;7.40;3.33;;;10.00;99.90;;;;;;4958928;28;94212;-32
2023/05/31 01:12:32;;;;;;;5.95;3.88;;;9.90;99.90;;;;;;4940779;28;94177;-32
2023/05/31 01:15:03;;;;;;;10.30;5.97;;;9.90;99.90;;;;;;4897944;28;93879;-36
2023/05/31 01:17:38;;;;;;;6.55;3.92;;;9.80;99.90;;;;;;4897676;28;91684;-32
2023/05/31 01:20:11;;;;;;;6.60;4.10;;;9.90;99.90;;;;;;4931214;28;93898;-33
2023/05/31 01:23:11;;;;;;;10.38;5.55;;;9.80;99.90;;;;;;4958393;28;94340;-32
2023/05/31 01:26:17;;;;;;;16.33;5.82;;;9.70;99.90;;;;;;4958785;28;95438;-31
2023/05/31 01:28:44;;;;;;;8.18;5.43;;;9.70;99.90;;;;;;4940289;28;93334;-33
2023/05/31 01:31:14;;;;;;;12.52;4.32;;;9.60;99.90;;;;;;4959325;28;95080;-32
2023/05/31 01:33:41;;;;;;;7.70;3.97;;;9.60;99.90;;;;;;4958048;28;96313;-36
2023/05/31 01:36:07;;;;;;;6.28;3.95;;;9.60;99.90;;;;;;4961804;28;94372;-31
2023/05/31 01:38:32;;;;;;;6.20;4.25;;;9.50;99.90;;;;;;4958316;28;93760;-32
2023/05/31 01:40:58;;;;;;;6.57;3.67;;;9.60;99.90;;;;;;4959038;28;94897;-32
2023/05/31 01:43:26;;;;;;;7.28;4.22;;;9.60;99.90;;;;;;4958271;28;95691;-34
2023/05/31 01:45:53;;;;;;;8.20;3.87;;;9.60;99.90;;;;;;4958643;28;92155;-32
2023/05/31 01:48:19;;;;;;;5.28;4.18;;;9.60;99.90;;;;;;4958702;28;93977;-35
2023/05/31 01:50:45;;;;;;;5.82;4.22;;;9.50;99.90;;;;;;4941125;28;97743;-31
2023/05/31 01:53:11;;;;;;;6.50;4.07;;;9.40;99.90;;;;;;4958039;28;97599;-34
2023/05/31 01:55:37;;;;;;;4.88;3.90;;;9.40;99.90;;;;;;4958627;28;94303;-33
2023/05/31 01:58:05;;;;;;;13.48;6.18;;;9.30;99.90;;;;;;4958261;28;93411;-36
2023/05/31 02:00:31;;;;;;;11.40;4.53;;;9.30;99.90;;;;;;4958225;28;94566;-31
2023/05/31 02:02:57;;;;;;;5.75;3.88;;;9.30;99.90;;;;;;4940925;28;94979;-31
2023/05/31 02:05:23;;;;;;;7.88;4.68;;;9.30;99.90;;;;;;4941441;28;94264;-33
2023/05/31 02:07:48;;;;;;;4.97;4.25;;;9.20;99.90;;;;;;4958463;28;92606;-31
2023/05/31 02:10:14;;;;;;;10.23;6.18;;;9.20;99.90;;;;;;4958220;28;94996;-32
2023/05/31 02:12:40;;;;;;;7.20;5.50;;;9.20;99.90;;;;;;4957820;28;94489;-31
2023/05/31 02:15:12;;;;;;;6.95;4.47;;;9.20;99.90;;;;;;4957095;28;94449;-36
2023/05/31 02:17:42;;;;;;;5.90;3.67;;;9.20;99.90;;;;;;4958391;28;92693;-32
2023/05/31 02:20:12;;;;;;;6.88;4.60;;;9.20;99.90;;;;;;4957212;28;93559;-33
2023/05/31 02:22:40;;;;;;;5.80;3.90;;;9.20;99.90;;;;;;4957102;28;94603;-30
2023/05/31 02:25:07;;;;;;;6.75;4.05;;;9.20;99.90;;;;;;4958311;28;94263;-35
2023/05/31 02:27:33;;;;;;;8.65;4.82;;;9.10;99.90;;;;;;4958579;28;92630;-33
2023/05/31 02:29:58;;;;;;;6.68;5.35;;;9.10;99.90;;;;;;4957204;28;95837;-32
2023/05/31 02:32:24;;;;;;;5.20;3.97;;;9.10;99.90;;;;;;4958281;28;94488;-35
2023/05/31 02:34:50;;;;;;;8.23;4.57;;;9.00;99.90;;;;;;4957914;28;93254;-32
2023/05/31 02:37:15;;;;;;;7.95;4.80;;;9.10;99.90;;;;;;4957550;28;93133;-34
2023/05/31 02:39:41;;;;;;;6.15;4.85;;;9.10;99.90;;;;;;4957581;28;95796;-30
2023/05/31 02:42:07;;;;;;;7.25;4.35;;;9.10;99.90;;;;;;4957056;28;95892;-34
2023/05/31 02:44:33;;;;;;;7.43;5.63;;;9.00;99.90;;;;;;4958325;28;93453;-31
2023/05/31 02:46:58;;;;;;;9.52;5.47;;;8.90;99.90;;;;;;4962458;28;94209;-31
2023/05/31 02:49:24;;;;;;;10.23;4.40;;;8.90;99.90;;;;;;4977025;28;94973;-37
2023/05/31 02:51:50;;;;;;;7.63;5.10;;;8.90;99.90;;;;;;4977178;28;94350;-32
2023/05/31 02:54:15;;;;;;;8.05;4.90;;;8.80;99.90;;;;;;4976677;28;93948;-33
2023/05/31 02:56:41;;;;;;;10.40;3.88;;;8.70;99.90;;;;;;4977628;28;91831;-34
2023/05/31 02:59:07;;;;;;;9.27;5.00;;;8.70;99.90;;;;;;4976335;28;94876;-32
2023/05/31 03:01:32;;;;;;;8.85;4.85;;;8.70;99.90;;;;;;4977515;28;94938;-33
2023/05/31 03:03:59;;;;;;;7.80;4.68;;;8.70;99.90;;;;;;4976969;28;94388;-31
2023/05/31 03:06:25;;;;;;;5.18;3.40;;;8.70;99.90;;;;;;4976389;28;93647;-33
2023/05/31 03:08:50;;;;;;;9.82;5.80;;;8.60;99.90;;;;;;4976815;28;94511;-32
2023/05/31 03:11:16;;;;;;;7.95;4.25;;;8.60;99.90;;;;;;4976290;28;94678;-30
2023/05/31 03:13:41;;;;;;;9.27;5.40;;;8.60;99.90;;;;;;4977225;28;93791;-35
2023/05/31 03:16:07;;;;;;;8.18;4.88;;;8.60;99.90;;;;;;4975889;28;93085;-35
2023/05/31 03:18:33;;;;;;;9.68;6.50;;;8.60;99.90;;;;;;4976586;28;94995;-36
2023/05/31 03:20:58;;;;;;;10.18;5.28;;;8.60;99.90;;;;;;4976661;28;94521;-33
2023/05/31 03:23:24;;;;;;;6.93;4.75;;;8.70;99.90;;;;;;4976484;28;94506;-34
2023/05/31 03:25:49;;;;;;;5.60;4.57;;;8.60;99.90;;;;;;4975832;28;94393;-29
2023/05/31 03:28:15;;;;;;;11.18;5.43;;;8.70;99.90;;;;;;4975503;28;95445;-33
2023/05/31 03:30:40;;;;;;;9.05;5.90;;;8.60;99.90;;;;;;4977264;28;95914;-31
2023/05/31 03:33:07;;;;;;;8.15;5.47;;;8.60;99.90;;;;;;4976447;28;94027;-34
2023/05/31 03:35:33;;;;;;;7.82;4.85;;;8.60;99.90;;;;;;4976005;28;94575;-33
2023/05/31 03:37:59;;;;;;;7.03;4.85;;;8.60;99.90;;;;;;4976840;28;94850;-33
2023/05/31 03:40:24;;;;;;;11.10;4.25;;;8.60;99.90;;;;;;4976082;28;94396;-34
2023/05/31 03:42:50;;;;;;;7.15;4.00;;;8.60;99.90;;;;;;4959531;28;94645;-33
2023/05/31 03:45:16;;;;;;;7.05;4.97;;;8.50;99.90;;;;;;4976630;28;91476;-34
2023/05/31 03:47:41;;;;;;;9.02;5.55;;;8.50;99.90;;;;;;4976221;28;94633;-34
2023/05/31 03:50:07;;;;;;;7.03;4.75;;;8.60;99.90;;;;;;4975841;28;96221;-35
2023/05/31 03:52:33;;;;;;;7.22;5.00;;;8.60;99.90;;;;;;4976214;28;94878;-33
2023/05/31 03:54:59;;;;;;;8.02;5.07;;;8.60;99.90;;;;;;4958263;28;92912;-34
2023/05/31 03:57:25;;;;;;;8.07;5.13;;;8.60;99.90;;;;;;4975598;28;94784;-34
2023/05/31 03:59:50;;;;;;;10.02;5.53;;;8.60;99.90;;;;;;4958671;28;94666;-36
2023/05/31 04:02:16;;;;;;;9.68;6.10;;;8.70;99.90;;;;;;4976234;28;94112;-34
2023/05/31 04:04:41;;;;;;;11.60;6.43;;;8.70;99.90;;;;;;4976016;28;94095;-37
2023/05/31 04:07:07;;;;;;;8.15;5.80;;;8.80;99.90;;;;;;4976294;28;94380;-32
2023/05/31 04:09:33;;;;;;;8.07;4.78;;;8.80;99.90;;;;;;4975897;28;94458;-30
2023/05/31 04:11:58;;;;;;;8.52;5.95;;;8.80;99.90;;;;;;4977194;28;94259;-30
2023/05/31 04:14:24;;;;;;;10.57;5.40;;;8.80;99.90;;;;;;4975696;28;94235;-31
2023/05/31 04:16:49;;;;;;;11.15;6.25;;;8.90;99.90;;;;;;4975425;28;96720;-37
2023/05/31 04:19:15;;;;;;;9.27;5.22;;;8.90;99.90;;;;;;4975903;28;94511;-33
2023/05/31 04:21:41;;;;;;;9.82;5.57;;;9.00;99.90;;;;;;5010931;22;94612;-36
2023/05/31 04:24:06;;;;;;;8.70;7.57;;;9.00;99.90;;;;;;4976238;28;93194;-34
2023/05/31 04:26:33;;;;;;;9.10;5.72;;;9.10;99.90;;;;;;4975289;28;94986;-30
2023/05/31 04:28:59;;;;;;;12.75;7.68;;;9.10;99.90;;;;;;4976162;28;93611;-33
2023/05/31 04:31:25;;;;;;;7.53;5.03;;;9.30;99.90;;;;;;4976159;28;94476;-32
2023/05/31 04:33:53;;;;;;;10.07;5.72;;;9.40;99.90;;;;;;4976669;28;92715;-34
2023/05/31 04:36:20;;;;;;;12.02;6.72;;;9.50;99.90;;;;;;4975798;28;94614;-36
2023/05/31 04:38:47;;;;;;;11.15;5.78;;;9.70;99.90;;;;;;4978356;28;94614;-30
2023/05/31 04:41:14;;;;;;;7.68;6.15;;;9.90;99.90;;;;;;4978707;28;94941;-32
2023/05/31 04:43:40;;;;;;;13.02;6.43;;;9.90;99.90;;;;;;4979390;28;92441;-33
2023/05/31 04:46:05;;;;;;;11.35;6.80;;;10.10;99.90;;;;;;4980016;28;94804;-34
2023/05/31 04:48:32;;;;;;;11.07;6.22;;;10.30;99.90;;;;;;4978610;28;94915;-36
2023/05/31 04:50:58;;;;;;;12.73;7.38;;;10.30;99.90;;;;;;4979185;28;93986;-34
2023/05/31 04:53:24;;;;;;;11.68;6.38;;;10.50;99.90;;;;;;4979441;28;93215;-31
2023/05/31 04:55:51;;;;;;;16.73;7.90;;;10.50;99.90;;;;;;4978673;28;94645;-33
2023/05/31 04:58:19;;;;;;;19.52;8.10;;;10.60;99.90;;;;;;4979124;28;95044;-35
2023/05/31 05:00:45;;;;;;;12.50;8.57;;;10.80;99.90;;;;;;4979560;28;92998;-35
2023/05/31 05:03:11;;;;;;;12.60;7.43;;;10.90;99.90;;;;;;4978261;28;93052;-35
2023/05/31 05:05:37;;;;;;;11.38;6.97;;;11.10;99.90;;;;;;4978255;28;95672;-31
2023/05/31 05:08:03;;;;;;;20.42;8.63;;;11.20;99.90;;;;;;4979502;28;95062;-30
2023/05/31 05:10:29;;;;;;;24.63;8.65;;;11.50;99.90;;;;;;4978792;28;93865;-31
2023/05/31 05:12:54;;;;;;;12.90;7.65;;;11.60;99.90;;;;;;4979391;28;94116;-31
2023/05/31 05:15:20;;;;;;;11.48;8.48;;;11.90;99.90;;;;;;4977970;28;94365;-31
2023/05/31 05:17:46;;;;;;;16.80;10.30;;;12.20;99.90;;;;;;4978983;28;94810;-33
2023/05/31 05:20:12;;;;;;;14.30;8.95;;;12.40;99.90;;;;;;4978236;28;94682;-35
2023/05/31 05:22:38;;;;;;;15.10;8.25;;;12.50;99.90;;;;;;4978810;28;93564;-31
2023/05/31 05:25:05;;;;;;;14.02;8.32;;;12.70;99.90;;;;;;4978723;28;95079;-34
2023/05/31 05:27:30;;;;;;;16.20;9.65;;;12.80;99.90;;;;;;4978599;28;94824;-32
2023/05/31 05:29:56;;;;;;;22.25;10.57;;;12.90;99.90;;;;;;4978421;28;93254;-35
2023/05/31 05:32:21;;;;;;;18.52;10.07;;;13.00;99.90;;;;;;4978525;28;93727;-31
2023/05/31 05:34:47;;;;;;;17.27;9.35;;;13.10;99.90;;;;;;4977438;28;95463;-35
2023/05/31 05:37:13;;;;;;;13.48;9.43;;;13.00;99.90;;;;;;4978443;28;95108;-34
2023/05/31 05:39:38;;;;;;;13.10;9.23;;;13.10;99.90;;;;;;4978329;28;93037;-32
2023/05/31 05:42:04;;;;;;;14.50;9.95;;;13.20;99.90;;;;;;4979117;28;93423;-32
2023/05/31 05:44:30;;;;;;;16.88;10.55;;;13.20;99.90;;;;;;4978426;28;94412;-33
2023/05/31 05:46:57;;;;;;;15.00;10.30;;;13.30;99.90;;;;;;4977923;28;95040;-37
2023/05/31 05:49:23;;;;;;;15.83;8.37;;;13.40;99.90;;;;;;4977023;28;92204;-35
2023/05/31 05:51:48;;;;;;;15.88;9.57;;;13.60;99.90;;;;;;4978430;28;93006;-33
2023/05/31 05:54:14;;;;;;;22.17;11.63;;;13.70;99.90;;;;;;4977668;28;96425;-33
2023/05/31 05:56:40;;;;;;;17.75;10.25;;;13.90;99.90;;;;;;4978089;28;95784;-32
2023/05/31 05:59:06;;;;;;;22.38;10.27;;;13.90;99.90;;;;;;4977688;28;92592;-35
2023/05/31 06:01:31;;;;;;;16.45;9.25;;;14.00;99.90;;;;;;4977832;28;94621;-35
2023/05/31 06:03:57;;;;;;;12.18;7.63;;;14.10;99.90;;;;;;4962653;28;94737;-34
2023/05/31 06:06:22;;;;;;;15.48;8.38;;;14.30;99.90;;;;;;4966890;28;95206;-31
2023/05/31 06:08:48;;;;;;;10.80;7.30;;;14.50;99.90;;;;;;4978354;28;93078;-32
2023/05/31 06:11:18;;;;;;;14.05;8.30;;;14.60;99.90;;;;;;4978149;28;93844;-32
2023/05/31 06:13:44;;;;;;;16.52;9.57;;;14.80;99.90;;;;;;4970336;28;94648;-36
2023/05/31 06:16:10;;;;;;;12.25;8.38;;;15.00;99.90;;;;;;4965796;28;94489;-30
2023/05/31 06:18:35;;;;;;;8.85;7.00;;;15.20;99.90;;;;;;4957669;28;95363;-34
2023/05/31 06:21:01;;;;;;;12.60;7.38;;;15.10;99.90;;;;;;4958454;28;93820;-32
2023/05/31 06:23:28;;;;;;;15.63;7.45;;;15.30;99.90;;;;;;4957580;28;96096;-31
2023/05/31 06:25:53;;;;;;;12.02;7.28;;;15.50;99.90;;;;;;4957689;28;94646;-32
2023/05/31 06:28:19;;;;;;;11.20;7.57;;;15.50;99.90;;;;;;4940862;28;93592;-35
2023/05/31 06:30:45;;;;;;;11.50;7.85;;;15.70;99.90;;;;;;4957594;28;92824;-34
2023/05/31 06:33:10;;;;;;;9.05;6.47;;;15.70;99.90;;;;;;4958408;28;94909;-31
2023/05/31 06:35:36;;;;;;;9.30;5.88;;;15.80;99.90;;;;;;4958023;28;96020;-32
2023/05/31 06:38:03;;;;;;;11.57;5.88;;;15.80;99.90;;;;;;4958268;28;93216;-30
2023/05/31 06:40:29;;;;;;;8.65;6.43;;;16.00;99.90;;;;;;4958040;28;95147;-32
2023/05/31 06:42:55;;;;;;;11.90;5.93;;;16.20;99.90;;;;;;4957124;28;95537;-31
2023/05/31 06:45:20;;;;;;;7.95;5.75;;;16.00;99.90;;;;;;4957433;28;95694;-36
2023/05/31 06:47:46;;;;;;;10.77;7.30;;;16.20;99.90;;;;;;4958588;28;94694;-33
2023/05/31 06:50:12;;;;;;;10.80;5.88;;;16.50;99.90;;;;;;4957039;28;94557;-34
2023/05/31 06:52:39;;;;;;;9.73;5.78;;;16.50;99.90;;;;;;4958095;28;94914;-31
2023/05/31 06:55:06;;;;;;;7.73;6.00;;;16.80;99.90;;;;;;4957521;28;94793;-32
2023/05/31 06:57:31;;;;;;;16.92;6.72;;;16.80;99.90;;;;;;4957935;28;94477;-35
2023/05/31 06:59:57;;;;;;;11.88;7.05;;;16.90;99.90;;;;;;4957917;28;93157;-32
2023/05/31 07:02:23;;;;;;;13.27;6.15;;;16.90;99.90;;;;;;4956769;28;94593;-30
2023/05/31 07:04:49;;;;;;;11.00;6.85;;;17.00;99.90;;;;;;4957517;28;94243;-31
2023/05/31 07:07:15;;;;;;;12.27;7.55;;;17.10;99.90;;;;;;4967136;28;94626;-36
2023/05/31 07:09:41;;;;;;;12.60;7.68;;;17.00;99.90;;;;;;4971515;28;93261;-34
2023/05/31 07:12:07;;;;;;;10.95;6.75;;;17.20;99.90;;;;;;4959298;28;94702;-34
2023/05/31 07:14:32;;;;;;;9.48;6.13;;;17.50;99.90;;;;;;4977076;28;94388;-35
2023/05/31 07:16:58;;;;;;;7.15;5.30;;;17.40;99.90;;;;;;4978103;28;93569;-31
2023/05/31 07:19:23;;;;;;;9.30;5.43;;;17.60;99.90;;;;;;4976875;28;92547;-32
2023/05/31 07:21:49;;;;;;;13.02;7.05;;;17.80;99.90;;;;;;4976535;28;93561;-32
2023/05/31 07:24:15;;;;;;;9.10;6.68;;;17.70;99.90;;;;;;4976756;28;95758;-31
2023/05/31 07:26:40;;;;;;;10.90;6.07;;;17.90;99.90;;;;;;4976582;28;93875;-32
2023/05/31 07:29:06;;;;;;;10.75;6.40;;;18.10;99.90;;;;;;4974948;28;94245;-35
2023/05/31 07:31:31;;;;;;;18.15;6.65;;;18.40;99.90;;;;;;4961753;28;95808;-34
2023/05/31 07:33:57;;;;;;;10.43;6.70;;;18.40;99.90;;;;;;4953840;28;94312;-31
2023/05/31 07:36:26;;;;;;;8.45;5.72;;;18.50;99.90;;;;;;4954583;28;92345;-33
2023/05/31 07:38:52;;;;;;;8.38;6.00;;;18.60;99.90;;;;;;4954177;28;93697;-33
2023/05/31 07:41:18;;;;;;;11.38;5.97;;;18.80;99.90;;;;;;4960662;28;94732;-32
2023/05/31 07:43:45;;;;;;;8.65;5.75;;;18.60;99.90;;;;;;4974391;28;94687;-32
2023/05/31 07:46:11;;;;;;;14.98;6.70;;;18.70;99.90;;;;;;4974444;28;92848;-34
2023/05/31 07:48:36;;;;;;;11.02;5.65;;;18.80;99.90;;;;;;4971501;28;93632;-33
2023/05/31 07:51:02;;;;;;;7.85;5.85;;;18.90;99.90;;;;;;4968111;28;94782;-33
2023/05/31 07:53:28;;;;;;;10.25;6.78;;;19.00;99.90;;;;;;4953782;28;95978;-35
2023/05/31 07:55:53;;;;;;;10.90;6.38;;;19.20;99.90;;;;;;4954581;28;93140;-31
2023/05/31 07:58:19;;;;;;;6.78;6.07;;;19.40;99.90;;;;;;4955132;28;94293;-33
2023/05/31 08:00:45;;;;;;;12.65;6.05;;;19.50;99.90;;;;;;4966325;28;94953;-32
2023/05/31 08:03:10;;;;;;;10.55;6.78;;;19.70;99.90;;;;;;4973954;28;95268;-31
2023/05/31 08:05:36;;;;;;;10.55;5.38;;;19.60;99.90;;;;;;4974401;28;94131;-36
2023/05/31 08:08:02;;;;;;;13.55;6.22;;;19.50;99.90;;;;;;4973802;28;94112;-33
2023/05/31 08:10:29;;;;;;;7.47;6.05;;;19.70;99.90;;;;;;4972928;28;94389;-33
2023/05/31 08:12:55;;;;;;;8.25;6.15;;;19.80;99.90;;;;;;4974138;28;94497;-33
2023/05/31 08:15:21;;;;;;;9.00;5.57;;;20.00;99.90;;;;;;4974182;28;94181;-32
2023/05/31 08:17:47;;;;;;;12.38;5.80;;;20.00;99.90;;;;;;4973163;28;94367;-36
2023/05/31 08:20:15;;;;;;;11.80;6.55;;;20.30;99.90;;;;;;4973076;28;95870;-32
2023/05/31 08:22:44;;;;;;;15.02;7.15;;;20.20;99.90;;;;;;4973690;28;95964;-30
2023/05/31 08:25:15;;;;;;;10.63;6.53;;;20.20;99.90;;;;;;4974349;28;94426;-33
2023/05/31 08:27:41;;;;;;;8.13;6.00;;;20.30;99.80;;;;;;4974257;28;93812;-31
2023/05/31 08:30:09;;;;;;;9.20;6.28;;;20.40;99.90;;;;;;4972935;28;94149;-33
2023/05/31 08:32:35;;;;;;;9.07;5.68;;;20.50;98.80;;;;;;4964869;28;94981;-31
2023/05/31 08:35:01;;;;;;;12.32;5.53;;;20.60;91.90;;;;;;4954348;28;94436;-30
2023/05/31 08:37:26;;;;;;;6.90;5.05;;;20.70;90.30;;;;;;4954098;28;91465;-34
2023/05/31 08:39:52;;;;;;;10.02;6.15;;;20.60;98.20;;;;;;4961319;28;94752;-33
2023/05/31 08:42:27;;;;;;;5.85;4.90;;;20.70;98.20;;;;;;4972949;28;94574;-34
2023/05/31 08:44:53;;;;;;;11.90;5.30;;;20.80;86.00;;;;;;4972537;28;95138;-34
2023/05/31 08:47:33;;;;;;;7.88;4.25;;;20.90;88.90;;;;;;4974068;28;92603;-31
2023/05/31 08:50:00;;;;;;;8.73;5.95;;;21.00;93.60;;;;;;4974029;28;94416;-33
2023/05/31 08:52:27;;;;;;;9.18;5.43;;;20.90;90.80;;;;;;4973594;28;94726;-34
2023/05/31 08:54:53;;;;;;;6.72;4.18;;;21.00;93.00;;;;;;4973165;28;92707;-31
2023/05/31 08:57:20;;;;;;;5.90;5.30;;;21.20;87.70;;;;;;4973457;28;93691;-34
2023/05/31 08:59:47;;;;;;;6.53;4.28;;;21.30;83.50;;;;;;4972998;28;95014;-34
2023/05/31 09:02:14;;;;;;;6.68;4.25;;;21.30;81.90;;;;;;4964415;28;93934;-31
2023/05/31 09:04:40;;;;;;;8.40;4.38;;;21.20;82.40;;;;;;4956243;28;92576;-34
2023/05/31 09:07:05;;;;;;;15.82;6.45;;;21.30;78.90;;;;;;4976989;28;94423;-36
2023/05/31 09:09:31;;;;;;;8.05;4.47;;;21.30;79.00;;;;;;4993476;28;95896;-36
2023/05/31 09:11:57;;;;;;;5.95;4.88;;;21.50;83.10;;;;;;4994377;28;95498;-32
2023/05/31 09:14:25;;;;;;;8.07;4.88;;;21.70;78.00;;;;;;4994913;28;94710;-33
2023/05/31 09:16:51;;;;;;;8.15;5.65;;;21.60;79.20;;;;;;4994538;28;92858;-32
2023/05/31 09:19:17;;;;;;;10.60;5.85;;;21.60;78.00;;;;;;4994350;28;94883;-34
2023/05/31 09:21:44;;;;;;;8.40;4.97;;;21.70;79.50;;;;;;4994504;28;94535;-34
2023/05/31 09:24:12;;;;;;;13.43;5.50;;;21.70;77.30;;;;;;4995466;28;93040;-35
2023/05/31 09:26:48;;;;;;;7.80;3.70;;;21.80;75.80;;;;;;4999981;28;92202;-33
2023/05/31 09:29:15;;;;;;;7.35;4.45;;;21.70;75.70;;;;;;4997596;28;94944;-32
2023/05/31 09:31:41;;;;;;;8.57;5.55;;;21.60;73.90;;;;;;4998390;28;94476;-33
2023/05/31 09:34:32;;;;;;;7.75;4.00;;;21.80;78.10;;;;;;4998847;28;94493;-33
2023/05/31 09:36:59;;;;;;;7.40;4.93;;;21.80;74.90;;;;;;4998354;28;92220;-34
2023/05/31 09:39:25;;;;;;;6.57;4.93;;;21.80;77.20;;;;;;4998783;28;94618;-34
2023/05/31 09:41:51;;;;;;;7.43;4.18;;;22.00;74.50;;;;;;4998242;28;94524;-34
2023/05/31 09:44:17;;;;;;;8.00;4.40;;;21.90;74.50;;;;;;4997940;28;93128;-32
2023/05/31 09:46:46;;;;;;;9.73;4.38;;;22.00;75.80;;;;;;4998710;28;94582;-33
2023/05/31 09:49:11;;;;;;;10.07;5.18;;;22.10;74.00;;;;;;4998094;28;94648;-32
2023/05/31 09:51:37;;;;;;;5.28;4.05;;;22.10;75.80;;;;;;4998380;28;94458;-33
2023/05/31 09:54:11;;;;;;;6.90;4.60;;;22.00;75.40;;;;;;4999028;28;92916;-35
2023/05/31 09:56:39;;;;;;;6.15;4.13;;;22.30;75.90;;;;;;4997494;28;93097;-33
2023/05/31 09:59:05;;;;;;;;;;;22.20;76.20;;;;;;4979121;28;95654;-34
2023/05/31 10:01:35;;;;;;;7.55;4.97;;;22.30;76.60;;;;;;4999125;28;94888;-34
2023/05/31 10:04:04;;;;;;;9.85;5.07;;;21.90;73.20;;;;;;4999382;28;93170;-33
2023/05/31 10:06:35;;;;;;;10.95;4.88;;;21.90;75.60;;;;;;4998224;28;93793;-43
2023/05/31 10:09:05;;;;;;;8.05;4.50;;;21.90;76.70;;;;;;4998135;28;95435;-34
2023/05/31 10:11:36;;;;;;;6.22;3.95;;;21.90;76.00;;;;;;4997971;28;94427;-32
2023/05/31 10:14:06;;;;;;;7.28;4.53;;;21.90;74.40;;;;;;4998528;28;92303;-33
2023/05/31 10:16:42;;;;;;;9.02;5.53;;;21.90;74.30;;;;;;4998013;28;92226;-32
2023/05/31 10:19:11;;;;;;;5.25;4.70;;;21.80;76.10;;;;;;4998001;28;94591;-34
2023/05/31 10:21:42;;;;;;;7.75;4.57;;;21.70;75.60;;;;;;4997967;28;95246;-31
2023/05/31 10:24:14;;;;;;;8.95;5.88;;;21.90;75.30;;;;;;4997362;28;94106;-34
2023/05/31 10:26:46;;;;;;;6.75;5.22;;;21.80;74.50;;;;;;4997667;28;93074;-34
2023/05/31 10:29:26;;;;;;;12.15;4.68;;;21.80;74.10;;;;;;4978806;28;95474;-34
2023/05/31 10:31:54;;;;;;;9.90;4.60;;;21.80;74.30;;;;;;4997463;28;94347;-33
2023/05/31 10:34:24;;;;;;;7.38;4.85;;;22.00;75.90;;;;;;4997205;28;93438;-35
2023/05/31 10:36:54;;;;;;;8.93;5.00;;;22.00;75.90;;;;;;4996656;28;92192;-32
2023/05/31 10:39:34;;;;;;;12.13;6.22;;;21.80;77.10;;;;;;4997569;28;94579;-34
2023/05/31 10:42:14;;;;;;;8.20;4.55;;;22.00;76.00;;;;;;4998065;28;94927;-33
2023/05/31 10:44:46;;;;;;;9.85;5.55;;;21.90;75.10;;;;;;4980062;28;93670;-34
2023/05/31 10:47:15;;;;;;;6.88;4.60;;;22.00;76.30;;;;;;4992864;28;92712;-36
2023/05/31 10:49:43;;;;;;;8.57;5.32;;;22.10;77.40;;;;;;4973636;28;96185;-35
2023/05/31 10:52:09;;;;;;;8.13;5.68;;;22.10;78.30;;;;;;4967294;28;95119;-33
2023/05/31 10:54:35;;;;;;;9.52;5.10;;;22.00;74.20;;;;;;4956520;28;94107;-32
2023/05/31 10:57:03;;;;;;;7.70;5.70;;;22.00;80.00;;;;;;4972648;28;92104;-35
2023/05/31 10:59:40;;;;;;;7.07;5.13;;;22.10;78.20;;;;;;4975328;28;94758;-34
2023/05/31 11:02:05;;;;;;;10.43;5.15;;;22.20;75.00;;;;;;4975402;28;95132;-33
2023/05/31 11:04:31;;;;;;;9.73;5.07;;;22.30;75.60;;;;;;4972445;28;92979;-33
2023/05/31 11:07:22;;;;;;;8.95;5.30;;;22.40;77.00;;;;;;4975946;28;92490;-34
2023/05/31 11:09:59;;;;;;;10.65;5.82;;;22.50;79.90;;;;;;4963730;28;94698;-34
2023/05/31 11:12:35;;;;;;;11.13;5.90;;;22.20;83.50;;;;;;4955193;28;93103;-35
2023/05/31 11:15:05;;;;;;;13.90;5.07;;;21.90;85.60;;;;;;4955388;28;94393;-32
2023/05/31 11:17:41;;;;;;;8.88;5.50;;;21.90;98.10;;;;;;4955048;28;93395;-35
2023/05/31 11:20:14;;;;;;;7.47;6.25;;;21.90;99.40;;;;;;4955187;28;95947;-36
2023/05/31 11:22:40;;;;;;;17.25;6.88;;;21.90;99.90;;;;;;4937152;28;94510;-34
2023/05/31 11:25:07;;;;;;;10.00;6.38;;;21.70;99.90;;;;;;4937344;28;93145;-35
2023/05/31 11:27:38;;;;;;;14.45;7.45;;;21.60;99.90;;;;;;4937764;28;94748;-32
2023/05/31 11:30:13;;;;;;;11.70;6.70;;;21.50;99.90;;;;;;4955650;28;94760;-34
2023/05/31 11:32:38;;;;;;;13.20;6.50;;;21.50;99.90;;;;;;4956168;28;94769;-34
2023/05/31 11:35:08;;;;;;;7.45;6.38;;;21.70;99.90;;;;;;4957390;28;94574;-36
2023/05/31 11:37:35;;;;;;;13.60;6.40;;;21.60;99.90;;;;;;4969407;28;94188;-32
2023/05/31 11:40:06;;;;;;;9.85;5.45;;;21.60;99.90;;;;;;4974898;28;95442;-32
2023/05/31 11:42:32;;;;;;;11.43;7.15;;;21.90;99.90;;;;;;4974830;28;96816;-33
2023/05/31 11:45:03;;;;;;;7.88;6.32;;;21.70;99.90;;;;;;4975151;28;93671;-33
2023/05/31 11:47:35;;;;;;;9.55;5.93;;;21.70;99.90;;;;;;4974159;28;94199;-33
2023/05/31 11:50:01;;;;;;;11.50;7.40;;;21.50;99.90;;;;;;4974792;28;94701;-33
2023/05/31 11:52:27;;;;;;;9.93;6.90;;;21.50;99.90;;;;;;4971697;28;94720;-34
2023/05/31 11:54:54;;;;;;;11.65;7.15;;;21.50;99.90;;;;;;4972445;28;93396;-31
2023/05/31 11:57:20;;;;;;;10.02;5.63;;;21.50;99.90;;;;;;4974672;28;93514;-36
2023/05/31 11:59:46;;;;;;;8.55;5.70;;;21.60;99.90;;;;;;4974835;28;92545;-33
2023/05/31 12:02:12;;;;;;;11.13;6.80;;;21.70;99.90;;;;;;4973742;28;94542;-34
2023/05/31 12:04:40;;;;;;;7.57;6.47;;;21.60;99.90;;;;;;4974691;28;94773;-36
2023/05/31 12:07:25;;;;;;;10.77;7.15;;;21.70;99.90;;;;;;4974955;28;94450;-33
2023/05/31 12:09:51;;;;;;;8.50;6.60;;;21.50;98.50;;;;;;4973974;28;94513;-34
2023/05/31 12:12:17;;;;;;;7.97;5.68;;;21.40;99.90;;;;;;4973910;28;94551;-34
2023/05/31 12:14:52;;;;;;;13.80;7.95;;;21.50;99.90;;;;;;4974242;28;94187;-33
2023/05/31 12:17:18;;;;;;;10.45;6.53;;;21.50;99.90;;;;;;4973280;28;93698;-36
2023/05/31 12:19:47;;;;;;;10.20;6.35;;;21.70;99.90;;;;;;4974388;28;94752;-31
2023/05/31 12:22:13;;;;;;;8.52;6.93;;;21.50;99.90;;;;;;4976106;28;94611;-31
2023/05/31 12:24:50;;;;;;;8.48;6.07;;;21.50;99.90;;;;;;4981939;28;93428;-33
2023/05/31 12:27:18;;;;;;;8.50;6.53;;;21.40;99.90;;;;;;4970886;28;94196;-32
2023/05/31 12:29:44;;;;;;;8.48;6.32;;;21.50;99.90;;;;;;4973560;28;95907;-34
2023/05/31 12:32:10;;;;;;;9.23;6.47;;;21.50;98.70;;;;;;4973263;28;96164;-34
2023/05/31 12:34:37;;;;;;;15.55;7.53;;;21.50;99.90;;;;;;4956973;28;93558;-34
2023/05/31 12:37:08;;;;;;;14.43;7.13;;;21.30;98.50;;;;;;4974102;28;94213;-34
2023/05/31 12:39:34;;;;;;;16.27;7.50;;;21.00;99.90;;;;;;4974692;28;94769;-33
2023/05/31 12:42:01;;;;;;;11.40;5.57;;;21.40;99.90;;;;;;4973668;28;94964;-36
2023/05/31 12:44:28;;;;;;;8.75;5.50;;;21.30;99.90;;;;;;4971985;28;94383;-33
2023/05/31 12:47:03;;;;;;;11.98;6.65;;;21.30;99.90;;;;;;4963099;28;92163;-36